createdAt,value
2022-11-05T00:00:56.830Z,9.16
2022-11-05T00:01:56.605Z,9.18
2022-11-05T00:02:56.578Z,9.13
2022-11-05T00:03:56.578Z,9.14
2022-11-05T00:04:56.805Z,9.14
2022-11-05T00:05:56.519Z,9.13
2022-11-05T00:06:56.507Z,9.11
2022-11-05T00:07:56.505Z,9.11
2022-11-05T00:08:56.488Z,9.11
2022-11-05T00:09:56.490Z,9.16
2022-11-05T00:10:56.710Z,9.16
2022-11-05T00:11:56.490Z,9.16
2022-11-05T00:12:56.437Z,9.19
2022-11-05T00:13:56.423Z,9.22
2022-11-05T00:14:56.654Z,9.22
2022-11-05T00:15:56.400Z,9.26
2022-11-05T00:16:56.394Z,9.25
2022-11-05T00:17:56.381Z,9.25
2022-11-05T00:18:56.360Z,9.22
2022-11-05T00:19:56.580Z,9.22
2022-11-05T00:20:56.349Z,9.19
2022-11-05T00:21:56.319Z,9.21
2022-11-05T00:22:56.324Z,9.23
2022-11-05T00:23:56.292Z,9.22
2022-11-05T00:24:56.517Z,9.21
2022-11-05T00:25:56.345Z,9.21
2022-11-05T00:26:56.258Z,9.22
2022-11-05T00:27:56.235Z,9.18
2022-11-05T00:28:56.236Z,9.18
2022-11-05T00:29:56.214Z,9.18
2022-11-05T00:30:56.452Z,9.16
2022-11-05T00:31:56.193Z,9.18
2022-11-05T00:32:56.171Z,9.19
2022-11-05T00:33:56.162Z,9.18
2022-11-05T00:34:56.144Z,9.19
2022-11-05T00:35:56.398Z,9.18
2022-11-05T00:36:56.115Z,9.19
2022-11-05T00:37:56.114Z,9.19
2022-11-05T00:38:56.097Z,9.21
2022-11-05T00:39:56.090Z,9.21
2022-11-05T00:40:56.312Z,9.22
2022-11-05T00:41:56.059Z,9.16
2022-11-05T00:42:56.053Z,9.13
2022-11-05T00:43:56.076Z,9.11
2022-11-05T00:44:56.015Z,9.10
2022-11-05T00:45:56.248Z,9.08
2022-11-05T00:46:59.869Z,9.08
2022-11-05T00:47:55.983Z,9.11
2022-11-05T00:48:55.967Z,9.11
2022-11-05T00:49:55.974Z,9.10
2022-11-05T00:50:56.185Z,9.10
2022-11-05T00:51:55.932Z,9.06
2022-11-05T00:52:55.982Z,9.04
2022-11-05T00:53:55.919Z,9.02
2022-11-05T00:54:55.891Z,8.99
2022-11-05T00:55:56.112Z,8.95
2022-11-05T00:56:58.324Z,8.95
2022-11-05T00:57:56.852Z,8.94
2022-11-05T00:58:55.857Z,8.94
2022-11-05T00:59:55.822Z,8.95
2022-11-05T01:00:55.815Z,8.97
2022-11-05T01:01:56.205Z,8.97
2022-11-05T01:02:55.858Z,8.99
2022-11-05T01:03:55.780Z,8.99
2022-11-05T01:04:55.780Z,9.02
2022-11-05T01:05:55.994Z,9.04
2022-11-05T01:06:55.742Z,9.06
2022-11-05T01:07:55.728Z,9.06
2022-11-05T01:08:55.715Z,9.04
2022-11-05T01:09:55.715Z,9.08
2022-11-05T01:10:55.907Z,9.08
2022-11-05T01:11:55.680Z,9.08
2022-11-05T01:12:55.654Z,9.08
2022-11-05T01:13:55.642Z,9.06
2022-11-05T01:14:55.631Z,9.02
2022-11-05T01:15:55.890Z,9.00
2022-11-05T01:16:55.603Z,8.99
2022-11-05T01:17:55.624Z,9.02
2022-11-05T01:18:55.572Z,9.02
2022-11-05T01:19:55.565Z,9.00
2022-11-05T01:20:55.781Z,8.99
2022-11-05T01:21:55.553Z,8.99
2022-11-05T01:22:55.552Z,8.99
2022-11-05T01:23:55.517Z,8.97
2022-11-05T01:24:55.499Z,8.97
2022-11-05T01:25:55.727Z,8.97
2022-11-05T01:26:55.467Z,8.97
2022-11-05T01:27:55.473Z,8.95
2022-11-05T01:28:55.496Z,8.94
2022-11-05T01:29:55.441Z,8.94
2022-11-05T01:30:55.676Z,8.95
2022-11-05T01:31:55.417Z,8.97
2022-11-05T01:32:55.385Z,8.95
2022-11-05T01:33:55.409Z,8.94
2022-11-05T01:34:55.370Z,8.94
2022-11-05T01:35:55.616Z,8.92
2022-11-05T01:36:55.348Z,8.94
2022-11-05T01:37:55.331Z,8.94
2022-11-05T01:38:55.311Z,8.94
2022-11-05T01:39:55.321Z,8.97
2022-11-05T01:40:55.522Z,9.00
2022-11-05T01:41:55.304Z,9.02
2022-11-05T01:42:55.270Z,9.00
2022-11-05T01:43:55.281Z,9.02
2022-11-05T01:44:55.471Z,9.03
2022-11-05T01:45:55.234Z,9.03
2022-11-05T01:46:55.235Z,9.03
2022-11-05T01:47:55.217Z,9.02
2022-11-05T01:49:00.077Z,9.03
2022-11-05T01:49:56.427Z,9.03
2022-11-05T01:50:55.166Z,9.03
2022-11-05T01:51:55.166Z,9.06
2022-11-05T01:52:55.135Z,9.00
2022-11-05T01:53:55.124Z,9.00
2022-11-05T01:54:55.124Z,9.00
2022-11-05T01:55:55.343Z,9.03
2022-11-05T01:56:55.085Z,9.00
2022-11-05T01:57:55.073Z,9.02
2022-11-05T01:58:55.062Z,9.03
2022-11-05T01:59:55.061Z,9.03
2022-11-05T02:00:55.272Z,9.04
2022-11-05T02:01:55.141Z,9.04
2022-11-05T02:02:55.095Z,9.08
2022-11-05T02:03:55.001Z,9.04
2022-11-05T02:05:15.986Z,9.02
2022-11-05T02:05:55.199Z,8.99
2022-11-05T02:06:54.956Z,9.03
2022-11-05T02:07:54.955Z,9.00
2022-11-05T02:08:54.929Z,9.03
2022-11-05T02:09:54.925Z,9.04
2022-11-05T02:10:55.161Z,9.06
2022-11-05T02:11:54.898Z,9.06
2022-11-05T02:12:54.910Z,9.08
2022-11-05T02:13:54.862Z,9.06
2022-11-05T02:14:54.854Z,9.06
2022-11-05T02:15:55.090Z,9.04
2022-11-05T02:16:54.826Z,9.03
2022-11-05T02:17:54.817Z,9.03
2022-11-05T02:18:54.801Z,9.04
2022-11-05T02:19:54.815Z,9.04
2022-11-05T02:20:55.313Z,9.06
2022-11-05T02:21:54.794Z,9.08
2022-11-05T02:22:54.775Z,9.08
2022-11-05T02:23:54.766Z,9.10
2022-11-05T02:24:54.720Z,9.13
2022-11-05T02:25:54.945Z,9.10
2022-11-05T02:26:54.716Z,9.11
2022-11-05T02:27:54.723Z,9.08
2022-11-05T02:28:54.703Z,9.08
2022-11-05T02:29:54.688Z,9.08
2022-11-05T02:30:54.907Z,9.04
2022-11-05T02:31:54.633Z,9.04
2022-11-05T02:32:54.624Z,9.03
2022-11-05T02:33:54.616Z,9.00
2022-11-05T02:34:54.595Z,9.00
2022-11-05T02:35:54.834Z,9.02
2022-11-05T02:36:54.589Z,9.02
2022-11-05T02:37:54.584Z,9.00
2022-11-05T02:38:54.565Z,9.00
2022-11-05T02:39:54.538Z,8.99
2022-11-05T02:40:54.762Z,9.04
2022-11-05T02:41:54.523Z,9.06
2022-11-05T02:42:54.495Z,9.06
2022-11-05T02:43:54.505Z,9.06
2022-11-05T02:44:54.493Z,9.06
2022-11-05T02:45:54.450Z,9.04
2022-11-05T02:46:54.680Z,9.06
2022-11-05T02:47:54.482Z,9.04
2022-11-05T02:48:54.418Z,9.06
2022-11-05T02:49:54.407Z,9.06
2022-11-05T02:50:54.397Z,9.08
2022-11-05T02:51:54.655Z,9.08
2022-11-05T02:52:54.366Z,9.06
2022-11-05T02:53:54.359Z,9.04
2022-11-05T02:54:54.333Z,9.03
2022-11-05T02:55:54.334Z,9.03
2022-11-05T02:56:54.590Z,9.00
2022-11-05T02:57:54.305Z,8.99
2022-11-05T02:58:54.286Z,8.99
2022-11-05T02:59:54.281Z,8.99
2022-11-05T03:00:54.263Z,8.97
2022-11-05T03:01:54.682Z,8.95
2022-11-05T03:02:54.426Z,8.94
2022-11-05T03:03:54.234Z,8.95
2022-11-05T03:04:54.219Z,8.94
2022-11-05T03:05:54.199Z,8.94
2022-11-05T03:06:54.469Z,8.95
2022-11-05T03:07:54.190Z,8.97
2022-11-05T03:08:54.149Z,8.95
2022-11-05T03:09:54.168Z,8.95
2022-11-05T03:10:54.129Z,8.97
2022-11-05T03:11:54.363Z,8.97
2022-11-05T03:12:54.113Z,8.99
2022-11-05T03:13:54.096Z,9.00
2022-11-05T03:14:54.099Z,9.02
2022-11-05T03:15:54.086Z,9.03
2022-11-05T03:16:54.052Z,9.06
2022-11-05T03:17:54.308Z,9.06
2022-11-05T03:18:54.030Z,9.06
2022-11-05T03:19:54.017Z,9.04
2022-11-05T03:20:54.005Z,9.04
2022-11-05T03:21:53.992Z,9.04
2022-11-05T03:22:54.232Z,9.04
2022-11-05T03:23:53.980Z,9.06
2022-11-05T03:24:53.961Z,9.08
2022-11-05T03:25:53.958Z,9.10
2022-11-05T03:26:54.158Z,9.08
2022-11-05T03:27:53.928Z,9.08
2022-11-05T03:28:53.899Z,9.04
2022-11-05T03:29:53.896Z,9.06
2022-11-05T03:30:53.877Z,9.03
2022-11-05T03:31:54.116Z,9.02
2022-11-05T03:32:53.848Z,9.02
2022-11-05T03:33:53.846Z,9.02
2022-11-05T03:34:53.827Z,9.00
2022-11-05T03:35:53.813Z,9.03
2022-11-05T03:36:54.089Z,9.02
2022-11-05T03:37:53.784Z,9.04
2022-11-05T03:38:53.780Z,9.06
2022-11-05T03:39:53.754Z,9.08
2022-11-05T03:40:53.745Z,9.08
2022-11-05T03:41:53.978Z,9.10
2022-11-05T03:42:53.723Z,9.06
2022-11-05T03:43:53.740Z,9.03
2022-11-05T03:44:53.737Z,9.00
2022-11-05T03:45:53.700Z,8.95
2022-11-05T03:46:53.916Z,8.94
2022-11-05T03:47:53.670Z,8.94
2022-11-05T03:48:53.676Z,8.95
2022-11-05T03:49:53.652Z,8.99
2022-11-05T03:50:53.630Z,8.99
2022-11-05T03:51:53.855Z,9.02
2022-11-05T03:52:53.610Z,9.00
2022-11-05T03:53:53.593Z,9.00
2022-11-05T03:54:53.568Z,8.97
2022-11-05T03:55:53.554Z,8.97
2022-11-05T03:56:53.803Z,8.95
2022-11-05T03:57:53.532Z,8.97
2022-11-05T03:58:58.684Z,9.00
2022-11-05T03:59:54.521Z,8.99
2022-11-05T04:00:53.489Z,8.99
2022-11-05T04:01:53.599Z,9.02
2022-11-05T04:02:53.786Z,9.02
2022-11-05T04:03:53.450Z,9.04
2022-11-05T04:04:53.442Z,9.06
2022-11-05T04:05:53.450Z,9.10
2022-11-05T04:06:53.657Z,9.08
2022-11-05T04:07:53.413Z,9.11
2022-11-05T04:08:53.379Z,9.13
2022-11-05T04:09:53.385Z,9.13
2022-11-05T04:10:53.378Z,9.16
2022-11-05T04:11:53.583Z,9.14
2022-11-05T04:12:53.353Z,9.18
2022-11-05T04:13:53.324Z,9.13
2022-11-05T04:14:53.321Z,9.08
2022-11-05T04:15:53.303Z,9.03
2022-11-05T04:16:53.287Z,8.99
2022-11-05T04:17:53.650Z,8.94
2022-11-05T04:18:53.253Z,8.89
2022-11-05T04:19:53.281Z,8.91
2022-11-05T04:20:53.223Z,8.89
2022-11-05T04:21:53.223Z,8.91
2022-11-05T04:22:53.453Z,8.91
2022-11-05T04:23:53.209Z,8.92
2022-11-05T04:24:53.183Z,8.92
2022-11-05T04:25:53.213Z,8.95
2022-11-05T04:26:53.160Z,8.97
2022-11-05T04:27:53.379Z,8.94
2022-11-05T04:28:53.145Z,8.95
2022-11-05T04:29:53.138Z,8.97
2022-11-05T04:30:53.107Z,8.97
2022-11-05T04:31:53.093Z,8.99
2022-11-05T04:32:53.316Z,9.00
2022-11-05T04:33:53.079Z,9.00
2022-11-05T04:34:53.056Z,9.02
2022-11-05T04:35:53.078Z,9.02
2022-11-05T04:36:53.042Z,9.02
2022-11-05T04:37:53.259Z,9.02
2022-11-05T04:38:53.004Z,9.02
2022-11-05T04:39:52.996Z,9.02
2022-11-05T04:40:52.987Z,9.02
2022-11-05T04:41:52.970Z,9.03
2022-11-05T04:42:52.985Z,9.02
2022-11-05T04:43:53.188Z,9.00
2022-11-05T04:44:52.950Z,9.00
2022-11-05T04:45:52.921Z,9.00
2022-11-05T04:46:52.898Z,9.00
2022-11-05T04:47:52.887Z,8.99
2022-11-05T04:48:53.109Z,8.99
2022-11-05T04:49:52.869Z,9.02
2022-11-05T04:50:52.859Z,9.02
2022-11-05T04:51:52.865Z,9.02
2022-11-05T04:52:52.835Z,9.02
2022-11-05T04:53:53.048Z,9.03
2022-11-05T04:54:59.934Z,9.03
2022-11-05T04:55:52.842Z,9.04
2022-11-05T04:56:52.771Z,9.04
2022-11-05T04:57:52.755Z,9.04
2022-11-05T04:58:52.990Z,9.06
2022-11-05T04:59:52.768Z,9.03
2022-11-05T05:00:52.770Z,9.04
2022-11-05T05:01:52.770Z,9.02
2022-11-05T05:02:52.839Z,9.03
2022-11-05T05:03:52.960Z,9.04
2022-11-05T05:04:52.670Z,9.02
2022-11-05T05:05:54.000Z,9.02
2022-11-05T05:06:52.640Z,9.00
2022-11-05T05:07:52.638Z,9.00
2022-11-05T05:08:53.559Z,9.00
2022-11-05T05:09:52.861Z,8.97
2022-11-05T05:10:53.560Z,8.95
2022-11-05T05:11:52.587Z,8.95
2022-11-05T05:12:53.325Z,8.94
2022-11-05T05:13:52.560Z,8.89
2022-11-05T05:14:52.794Z,8.88
2022-11-05T05:15:52.535Z,8.87
2022-11-05T05:16:52.526Z,8.87
2022-11-05T05:17:52.510Z,8.87
2022-11-05T05:18:53.278Z,8.85
2022-11-05T05:19:52.792Z,8.84
2022-11-05T05:20:52.512Z,8.82
2022-11-05T05:21:52.512Z,8.84
2022-11-05T05:22:52.442Z,8.84
2022-11-05T05:23:52.430Z,8.85
2022-11-05T05:24:53.165Z,8.85
2022-11-05T05:25:52.420Z,8.84
2022-11-05T05:26:52.425Z,8.84
2022-11-05T05:27:52.387Z,8.85
2022-11-05T05:28:52.359Z,8.85
2022-11-05T05:29:52.586Z,8.88
2022-11-05T05:30:57.657Z,8.89
2022-11-05T05:31:53.336Z,8.89
2022-11-05T05:32:52.319Z,8.89
2022-11-05T05:33:53.066Z,8.89
2022-11-05T05:34:52.525Z,8.89
2022-11-05T05:35:52.353Z,8.87
2022-11-05T05:36:52.263Z,8.84
2022-11-05T05:37:52.253Z,8.76
2022-11-05T05:38:52.236Z,8.73
2022-11-05T05:39:52.474Z,8.71
2022-11-05T05:40:52.214Z,8.71
2022-11-05T05:41:52.260Z,8.73
2022-11-05T05:42:52.183Z,8.74
2022-11-05T05:43:52.181Z,8.73
2022-11-05T05:44:52.912Z,8.74
2022-11-05T05:45:52.187Z,8.74
2022-11-05T05:46:52.901Z,8.74
2022-11-05T05:47:52.740Z,8.78
2022-11-05T05:48:52.978Z,8.81
2022-11-05T05:49:52.337Z,8.84
2022-11-05T05:50:52.086Z,8.87
2022-11-05T05:51:52.115Z,8.87
2022-11-05T05:52:52.006Z,8.85
2022-11-05T05:53:52.051Z,8.88
2022-11-05T05:54:52.224Z,8.88
2022-11-05T05:55:51.973Z,8.84
2022-11-05T05:56:51.952Z,8.81
2022-11-05T05:57:52.001Z,8.82
2022-11-05T05:58:51.985Z,8.84
2022-11-05T05:59:52.214Z,8.84
2022-11-05T06:00:51.914Z,8.84
2022-11-05T06:01:52.041Z,8.85
2022-11-05T06:02:51.973Z,8.84
2022-11-05T06:03:51.923Z,8.81
2022-11-05T06:04:51.930Z,8.81
2022-11-05T06:05:52.092Z,8.82
2022-11-05T06:06:51.835Z,8.81
2022-11-05T06:07:52.758Z,8.79
2022-11-05T06:08:51.897Z,8.78
2022-11-05T06:09:52.029Z,8.76
2022-11-05T06:10:51.834Z,8.78
2022-11-05T06:11:51.772Z,8.78
2022-11-05T06:12:51.760Z,8.81
2022-11-05T06:13:51.743Z,8.81
2022-11-05T06:14:51.727Z,8.81
2022-11-05T06:15:51.957Z,8.79
2022-11-05T06:16:51.874Z,8.81
2022-11-05T06:17:51.702Z,8.79
2022-11-05T06:18:51.683Z,8.76
2022-11-05T06:19:51.680Z,8.78
2022-11-05T06:20:52.404Z,8.78
2022-11-05T06:21:51.676Z,8.79
2022-11-05T06:22:51.629Z,8.82
2022-11-05T06:23:51.624Z,8.85
2022-11-05T06:24:51.608Z,8.89
2022-11-05T06:25:51.858Z,8.89
2022-11-05T06:26:51.571Z,8.91
2022-11-05T06:27:52.319Z,8.91
2022-11-05T06:28:51.613Z,8.91
2022-11-05T06:29:51.540Z,8.94
2022-11-05T06:30:52.528Z,8.94
2022-11-05T06:31:51.522Z,8.89
2022-11-05T06:32:51.501Z,8.89
2022-11-05T06:33:51.485Z,8.88
2022-11-05T06:34:51.477Z,8.89
2022-11-05T06:35:51.697Z,8.88
2022-11-05T06:36:51.455Z,8.88
2022-11-05T06:37:51.444Z,8.88
2022-11-05T06:38:51.423Z,8.87
2022-11-05T06:39:51.419Z,8.85
2022-11-05T06:40:51.632Z,8.87
2022-11-05T06:42:16.703Z,8.85
2022-11-05T06:42:52.370Z,8.85
2022-11-05T06:43:51.359Z,8.84
2022-11-05T06:44:53.073Z,8.87
2022-11-05T06:45:51.352Z,8.85
2022-11-05T06:46:51.558Z,8.82
2022-11-05T06:47:51.312Z,8.82
2022-11-05T06:48:51.296Z,8.79
2022-11-05T06:49:52.729Z,8.74
2022-11-05T06:50:51.365Z,8.73
2022-11-05T06:51:51.578Z,8.73
2022-11-05T06:52:51.318Z,8.74
2022-11-05T06:53:51.293Z,8.71
2022-11-05T06:54:51.226Z,8.73
2022-11-05T06:55:51.215Z,8.71
2022-11-05T06:56:52.373Z,8.70
2022-11-05T06:57:51.185Z,8.73
2022-11-05T06:58:51.206Z,8.74
2022-11-05T06:59:54.563Z,8.76
2022-11-05T07:00:52.170Z,8.78
2022-11-05T07:01:51.405Z,8.78
2022-11-05T07:02:51.131Z,8.81
2022-11-05T07:03:51.159Z,8.79
2022-11-05T07:04:51.091Z,8.81
2022-11-05T07:05:52.019Z,8.78
2022-11-05T07:06:51.310Z,8.81
2022-11-05T07:07:51.090Z,8.81
2022-11-05T07:08:51.068Z,8.84
2022-11-05T07:09:51.206Z,8.85
2022-11-05T07:10:51.017Z,8.85
2022-11-05T07:11:51.249Z,8.87
2022-11-05T07:12:50.995Z,8.87
2022-11-05T07:13:51.935Z,8.82
2022-11-05T07:14:51.917Z,8.84
2022-11-05T07:15:50.954Z,8.85
2022-11-05T07:16:51.284Z,8.87
2022-11-05T07:17:51.086Z,8.88
2022-11-05T07:18:50.934Z,8.89
2022-11-05T07:19:50.935Z,8.92
2022-11-05T07:20:51.833Z,8.97
2022-11-05T07:21:51.111Z,8.95
2022-11-05T07:22:50.873Z,8.97
2022-11-05T07:23:50.862Z,8.97
2022-11-05T07:24:50.840Z,9.00
2022-11-05T07:25:50.834Z,9.00
2022-11-05T07:26:51.053Z,9.00
2022-11-05T07:27:50.800Z,9.00
2022-11-05T07:28:50.835Z,8.99
2022-11-05T07:29:50.777Z,9.00
2022-11-05T07:30:50.768Z,9.03
2022-11-05T07:31:50.987Z,9.03
2022-11-05T07:32:51.685Z,9.04
2022-11-05T07:33:50.726Z,9.04
2022-11-05T07:34:50.714Z,9.06
2022-11-05T07:35:51.686Z,9.08
2022-11-05T07:36:51.446Z,9.08
2022-11-05T07:37:50.673Z,9.10
2022-11-05T07:38:50.666Z,9.08
2022-11-05T07:39:50.686Z,9.08
2022-11-05T07:40:50.735Z,9.10
2022-11-05T07:41:50.894Z,9.11
2022-11-05T07:42:51.551Z,9.14
2022-11-05T07:43:50.683Z,9.16
2022-11-05T07:44:50.659Z,9.14
2022-11-05T07:45:50.587Z,9.13
2022-11-05T07:46:50.799Z,9.11
2022-11-05T07:47:50.554Z,9.10
2022-11-05T07:48:50.574Z,9.10
2022-11-05T07:49:50.519Z,9.10
2022-11-05T07:50:50.553Z,9.10
2022-11-05T07:51:50.494Z,9.11
2022-11-05T07:52:50.715Z,9.11
2022-11-05T07:53:50.501Z,9.11
2022-11-05T07:54:51.397Z,9.14
2022-11-05T07:55:50.438Z,9.16
2022-11-05T07:56:50.441Z,9.19
2022-11-05T07:57:50.650Z,9.21
2022-11-05T07:58:50.485Z,9.23
2022-11-05T07:59:50.393Z,9.25
2022-11-05T08:00:50.503Z,9.28
2022-11-05T08:01:50.633Z,9.26
2022-11-05T08:02:50.885Z,9.25
2022-11-05T08:03:50.343Z,9.23
2022-11-05T08:04:50.331Z,9.21
2022-11-05T08:05:50.319Z,9.22
2022-11-05T08:06:50.301Z,9.21
2022-11-05T08:07:50.533Z,9.21
2022-11-05T08:08:51.224Z,9.21
2022-11-05T08:09:50.262Z,9.22
2022-11-05T08:10:50.258Z,9.23
2022-11-05T08:11:52.901Z,9.22
2022-11-05T08:12:50.475Z,9.23
2022-11-05T08:13:50.208Z,9.25
2022-11-05T08:14:50.328Z,9.25
2022-11-05T08:15:50.185Z,9.28
2022-11-05T08:16:50.209Z,9.29
2022-11-05T08:17:50.396Z,9.28
2022-11-05T08:18:50.188Z,9.26
2022-11-05T08:19:50.134Z,9.26
2022-11-05T08:20:50.145Z,9.28
2022-11-05T08:21:50.143Z,9.31
2022-11-05T08:22:50.343Z,9.31
2022-11-05T08:23:50.171Z,9.32
2022-11-05T08:24:50.081Z,9.34
2022-11-05T08:25:50.060Z,9.36
2022-11-05T08:26:50.050Z,9.34
2022-11-05T08:27:50.260Z,9.36
2022-11-05T08:28:50.087Z,9.37
2022-11-05T08:29:50.029Z,9.40
2022-11-05T08:30:50.021Z,9.40
2022-11-05T08:31:50.029Z,9.43
2022-11-05T08:32:50.220Z,9.41
2022-11-05T08:33:50.001Z,9.40
2022-11-05T08:34:49.946Z,9.43
2022-11-05T08:35:49.965Z,9.43
2022-11-05T08:36:50.025Z,9.44
2022-11-05T08:37:51.085Z,9.44
2022-11-05T08:38:50.006Z,9.46
2022-11-05T08:39:49.876Z,9.47
2022-11-05T08:40:49.870Z,9.47
2022-11-05T08:41:49.859Z,9.50
2022-11-05T08:42:50.420Z,9.54
2022-11-05T08:43:49.885Z,9.55
2022-11-05T08:44:49.813Z,9.54
2022-11-05T08:45:49.792Z,9.54
2022-11-05T08:46:50.755Z,9.54
2022-11-05T08:47:50.007Z,9.55
2022-11-05T08:48:49.781Z,9.55
2022-11-05T08:49:49.770Z,9.56
2022-11-05T08:50:49.744Z,9.47
2022-11-05T08:51:49.980Z,9.39
2022-11-05T08:52:50.125Z,9.39
2022-11-05T08:53:49.701Z,9.40
2022-11-05T08:54:49.687Z,9.39
2022-11-05T08:55:49.666Z,9.36
2022-11-05T08:56:49.665Z,9.39
2022-11-05T08:57:49.884Z,9.37
2022-11-05T08:58:50.584Z,9.43
2022-11-05T08:59:49.649Z,9.46
2022-11-05T09:00:49.705Z,9.50
2022-11-05T09:01:49.709Z,9.51
2022-11-05T09:02:50.092Z,9.55
2022-11-05T09:03:49.778Z,9.56
2022-11-05T09:04:49.567Z,9.61
2022-11-05T09:05:49.610Z,9.65
2022-11-05T09:06:49.540Z,9.65
2022-11-05T09:07:49.746Z,9.65
2022-11-05T09:08:49.560Z,9.68
2022-11-05T09:09:49.488Z,9.69
2022-11-05T09:10:49.482Z,9.69
2022-11-05T09:12:11.226Z,9.74
2022-11-05T09:12:50.699Z,9.77
2022-11-05T09:13:49.935Z,9.80
2022-11-05T09:14:49.434Z,9.82
2022-11-05T09:15:49.450Z,9.83
2022-11-05T09:16:49.397Z,9.84
2022-11-05T09:17:49.623Z,9.87
2022-11-05T09:18:49.384Z,9.87
2022-11-05T09:19:49.420Z,9.91
2022-11-05T09:20:49.394Z,9.89
2022-11-05T09:21:49.352Z,9.84
2022-11-05T09:22:49.336Z,9.89
2022-11-05T09:23:49.546Z,9.87
2022-11-05T09:24:49.312Z,9.87
2022-11-05T09:25:49.294Z,9.87
2022-11-05T09:26:49.264Z,9.86
2022-11-05T09:27:49.256Z,9.82
2022-11-05T09:28:49.583Z,9.80
2022-11-05T09:29:49.261Z,9.80
2022-11-05T09:30:49.220Z,9.80
2022-11-05T09:31:49.199Z,9.82
2022-11-05T09:32:49.427Z,9.80
2022-11-05T09:33:49.186Z,9.77
2022-11-05T09:34:49.193Z,9.76
2022-11-05T09:35:49.174Z,9.77
2022-11-05T09:36:49.136Z,9.79
2022-11-05T09:37:49.168Z,9.80
2022-11-05T09:38:49.345Z,9.82
2022-11-05T09:39:49.093Z,9.80
2022-11-05T09:40:49.104Z,9.77
2022-11-05T09:41:49.066Z,9.79
2022-11-05T09:42:49.312Z,9.76
2022-11-05T09:43:49.056Z,9.73
2022-11-05T09:44:49.041Z,9.74
2022-11-05T09:45:49.051Z,9.74
2022-11-05T09:46:49.014Z,9.76
2022-11-05T09:47:49.233Z,9.77
2022-11-05T09:48:48.980Z,9.73
2022-11-05T09:49:48.967Z,9.73
2022-11-05T09:50:48.957Z,9.72
2022-11-05T09:51:48.960Z,9.73
2022-11-05T09:52:49.224Z,9.73
2022-11-05T09:53:48.911Z,9.73
2022-11-05T09:54:48.941Z,9.73
2022-11-05T09:55:48.898Z,9.74
2022-11-05T09:56:48.887Z,9.74
2022-11-05T09:57:49.123Z,9.74
2022-11-05T09:58:48.854Z,9.77
2022-11-05T09:59:48.853Z,9.76
2022-11-05T10:00:48.886Z,9.77
2022-11-05T10:01:49.045Z,9.79
2022-11-05T10:02:48.815Z,9.82
2022-11-05T10:03:48.813Z,9.83
2022-11-05T10:04:48.901Z,9.83
2022-11-05T10:05:48.841Z,9.84
2022-11-05T10:06:48.793Z,9.87
2022-11-05T10:07:48.726Z,9.89
2022-11-05T10:08:49.008Z,9.92
2022-11-05T10:09:48.707Z,9.91
2022-11-05T10:10:48.870Z,9.89
2022-11-05T10:11:48.687Z,9.92
2022-11-05T10:12:48.705Z,9.92
2022-11-05T10:13:48.669Z,9.91
2022-11-05T10:14:48.649Z,9.92
2022-11-05T10:15:48.958Z,9.94
2022-11-05T10:16:48.621Z,9.94
2022-11-05T10:17:48.605Z,9.97
2022-11-05T10:18:48.640Z,9.97
2022-11-05T10:19:48.593Z,9.98
2022-11-05T10:20:48.565Z,9.98
2022-11-05T10:22:50.520Z,9.98
2022-11-05T10:23:49.493Z,9.98
2022-11-05T10:24:48.596Z,9.98
2022-11-05T10:25:48.708Z,9.98
2022-11-05T10:26:48.492Z,9.99
2022-11-05T10:27:48.474Z,9.98
2022-11-05T10:28:48.469Z,9.95
2022-11-05T10:29:48.445Z,9.95
2022-11-05T10:30:48.441Z,9.92
2022-11-05T10:31:48.646Z,9.95
2022-11-05T10:32:48.422Z,9.98
2022-11-05T10:33:48.409Z,9.99
2022-11-05T10:34:48.411Z,9.98
2022-11-05T10:35:48.366Z,9.98
2022-11-05T10:36:48.539Z,9.98
2022-11-05T10:37:48.336Z,9.98
2022-11-05T10:38:48.336Z,9.99
2022-11-05T10:39:48.315Z,10.01
2022-11-05T10:40:48.320Z,10.02
2022-11-05T10:41:48.478Z,10.04
2022-11-05T10:42:48.279Z,10.07
2022-11-05T10:43:48.333Z,10.07
2022-11-05T10:44:48.255Z,10.10
2022-11-05T10:45:48.247Z,10.12
2022-11-05T10:46:48.463Z,10.12
2022-11-05T10:47:48.243Z,10.13
2022-11-05T10:48:48.201Z,10.15
2022-11-05T10:49:48.189Z,10.16
2022-11-05T10:50:48.181Z,10.13
2022-11-05T10:51:48.540Z,10.13
2022-11-05T10:52:48.169Z,10.15
2022-11-05T10:53:48.150Z,10.17
2022-11-05T10:54:48.138Z,10.20
2022-11-05T10:55:55.170Z,10.25
2022-11-05T10:56:48.953Z,10.28
2022-11-05T10:57:48.380Z,10.30
2022-11-05T10:58:48.845Z,10.30
2022-11-05T10:59:48.069Z,10.30
2022-11-05T11:00:48.114Z,10.30
2022-11-05T11:01:48.162Z,10.31
2022-11-05T11:02:48.075Z,10.33
2022-11-05T11:03:48.321Z,10.35
2022-11-05T11:04:48.012Z,10.37
2022-11-05T11:05:47.980Z,10.38
2022-11-05T11:06:48.029Z,10.44
2022-11-05T11:07:47.960Z,10.46
2022-11-05T11:08:47.987Z,10.44
2022-11-05T11:09:48.128Z,10.42
2022-11-05T11:10:47.931Z,10.44
2022-11-05T11:11:47.958Z,10.46
2022-11-05T11:12:47.917Z,10.41
2022-11-05T11:13:47.884Z,10.44
2022-11-05T11:14:48.095Z,10.44
2022-11-05T11:15:47.856Z,10.49
2022-11-05T11:16:47.874Z,10.53
2022-11-05T11:17:47.848Z,10.60
2022-11-05T11:18:47.834Z,10.63
2022-11-05T11:19:47.994Z,10.61
2022-11-05T11:20:47.930Z,10.64
2022-11-05T11:21:47.781Z,10.69
2022-11-05T11:22:47.765Z,10.74
2022-11-05T11:23:47.779Z,10.81
2022-11-05T11:24:47.742Z,10.82
2022-11-05T11:25:47.924Z,10.84
2022-11-05T11:26:47.711Z,10.82
2022-11-05T11:27:47.709Z,10.84
2022-11-05T11:28:47.735Z,10.84
2022-11-05T11:29:49.534Z,10.82
2022-11-05T11:30:47.680Z,10.86
2022-11-05T11:31:47.690Z,10.90
2022-11-05T11:32:47.651Z,10.94
2022-11-05T11:33:47.666Z,10.96
2022-11-05T11:34:47.612Z,10.94
2022-11-05T11:35:47.625Z,10.90
2022-11-05T11:36:47.795Z,10.89
2022-11-05T11:37:47.608Z,10.94
2022-11-05T11:38:47.574Z,10.96
2022-11-05T11:39:47.553Z,11.00
2022-11-05T11:40:47.533Z,10.99
2022-11-05T11:41:47.524Z,11.00
2022-11-05T11:42:47.792Z,11.04
2022-11-05T11:43:47.508Z,11.05
2022-11-05T11:44:47.483Z,11.11
2022-11-05T11:45:47.495Z,11.10
2022-11-05T11:46:47.501Z,11.10
2022-11-05T11:47:47.461Z,11.11
2022-11-05T11:48:47.672Z,11.12
2022-11-05T11:49:47.438Z,11.12
2022-11-05T11:50:47.460Z,11.14
2022-11-05T11:51:50.150Z,11.08
2022-11-05T11:52:47.443Z,11.05
2022-11-05T11:53:47.545Z,11.02
2022-11-05T11:54:47.422Z,10.99
2022-11-05T11:55:47.359Z,10.96
2022-11-05T11:56:47.352Z,10.93
2022-11-05T11:57:48.320Z,10.93
2022-11-05T11:58:47.317Z,10.90
2022-11-05T12:00:07.836Z,10.89
2022-11-05T12:00:48.283Z,10.84
2022-11-05T12:01:47.356Z,10.86
2022-11-05T12:02:47.383Z,10.86
2022-11-05T12:03:47.252Z,10.90
2022-11-05T12:04:47.249Z,10.92
2022-11-05T12:05:47.393Z,10.92
2022-11-05T12:06:47.198Z,10.92
2022-11-05T12:07:47.212Z,10.93
2022-11-05T12:08:50.747Z,10.92
2022-11-05T12:09:48.166Z,10.93
2022-11-05T12:10:47.569Z,10.93
2022-11-05T12:11:47.140Z,10.97
2022-11-05T12:12:47.448Z,11.04
2022-11-05T12:13:47.118Z,11.10
2022-11-05T12:14:47.174Z,11.12
2022-11-05T12:15:47.118Z,11.14
2022-11-05T12:16:47.256Z,11.23
2022-11-05T12:17:47.068Z,11.27
2022-11-05T12:18:47.063Z,11.30
2022-11-05T12:19:47.035Z,11.26
2022-11-05T12:20:48.380Z,11.26
2022-11-05T12:21:52.868Z,11.23
2022-11-05T12:22:48.010Z,11.23
2022-11-05T12:23:47.019Z,11.22
2022-11-05T12:24:46.975Z,11.22
2022-11-05T12:25:46.992Z,11.17
2022-11-05T12:26:46.941Z,11.14
2022-11-05T12:27:47.172Z,11.10
2022-11-05T12:29:16.851Z,11.05
2022-11-05T12:29:47.913Z,11.00
2022-11-05T12:30:46.934Z,10.96
2022-11-05T12:31:46.889Z,10.92
2022-11-05T12:32:46.906Z,10.92
2022-11-05T12:33:47.112Z,10.89
2022-11-05T12:34:46.850Z,10.89
2022-11-05T12:35:49.883Z,10.90
2022-11-05T12:36:47.818Z,10.90
2022-11-05T12:37:46.861Z,10.89
2022-11-05T12:38:46.994Z,10.90
2022-11-05T12:39:46.793Z,10.93
2022-11-05T12:40:46.776Z,10.93
2022-11-05T12:41:46.762Z,10.90
2022-11-05T12:42:46.766Z,10.89
2022-11-05T12:43:46.731Z,10.89
2022-11-05T12:44:47.038Z,10.89
2022-11-05T12:45:46.717Z,10.89
2022-11-05T12:46:46.687Z,10.89
2022-11-05T12:47:46.693Z,10.87
2022-11-05T12:48:46.662Z,10.87
2022-11-05T12:49:46.650Z,10.86
2022-11-05T12:50:46.880Z,10.86
2022-11-05T12:51:46.655Z,10.87
2022-11-05T12:52:46.617Z,10.89
2022-11-05T12:53:46.610Z,10.89
2022-11-05T12:54:46.613Z,10.86
2022-11-05T12:55:48.729Z,10.84
2022-11-05T12:56:46.749Z,10.79
2022-11-05T12:57:46.568Z,10.82
2022-11-05T12:58:46.559Z,10.86
2022-11-05T12:59:46.557Z,10.86
2022-11-05T13:00:46.506Z,10.89
2022-11-05T13:01:46.594Z,10.92
2022-11-05T13:02:46.699Z,10.92
2022-11-05T13:03:46.485Z,10.97
2022-11-05T13:04:46.481Z,10.94
2022-11-05T13:05:46.476Z,10.93
2022-11-05T13:06:46.432Z,10.89
2022-11-05T13:07:46.429Z,10.89
2022-11-05T13:08:46.629Z,10.89
2022-11-05T13:09:46.395Z,10.87
2022-11-05T13:10:46.400Z,10.87
2022-11-05T13:11:46.382Z,10.84
2022-11-05T13:12:46.351Z,10.84
2022-11-05T13:13:46.344Z,10.82
2022-11-05T13:14:46.670Z,10.82